Time;durP1;ratioP1;P1;durP2;ratioP2;P2;SDS_P1;SDS_P2;PMS_P1;PMS_P2;Temp;Humidity;BMP_temperature;BMP_pressure;BME280_temperature;BME280_humidity;BME280_pressure;Samples;Min_cycle;Max_cycle;Signal;HPM_P1;HPM_P2
2022/03/30 00:01:39;;;;;;;20.63;13.73;;;;;;;;;;5113529;28;20069;-65
2022/03/30 00:04:08;;;;;;;22.20;14.00;;;;;;;;;;5113648;28;20130;-65
2022/03/30 00:06:37;;;;;;;21.55;13.05;;;;;;;;;;5112882;28;20485;-66
2022/03/30 00:09:07;;;;;;;21.15;13.38;;;;;;;;;;5113141;28;20043;-65
2022/03/30 00:11:35;;;;;;;23.38;13.77;;;;;;;;;;5113222;28;20043;-65
2022/03/30 00:14:07;;;;;;;19.80;13.30;;;;;;;;;;5113269;28;20040;-65
2022/03/30 00:16:37;;;;;;;23.13;13.80;;;;;;;;;;5113022;28;20044;-65
2022/03/30 00:19:05;;;;;;;22.38;13.52;;;;;;;;;;5113380;28;20071;-66
2022/03/30 00:21:35;;;;;;;20.35;13.63;;;;;;;;;;5112942;28;20036;-67
2022/03/30 00:24:04;;;;;;;21.90;13.73;;;;;;;;;;5112770;28;20517;-66
2022/03/30 00:26:32;;;;;;;24.13;13.40;;;;;;;;;;5112802;28;20035;-67
2022/03/30 00:29:06;;;;;;;21.33;14.35;;;;;;;;;;5112815;28;20511;-67
2022/03/30 00:31:33;;;;;;;24.52;13.82;;;;;;;;;;5113153;28;20501;-67
2022/03/30 00:34:05;;;;;;;24.63;13.65;;;;;;;;;;5113484;28;20048;-67
2022/03/30 00:36:36;;;;;;;20.88;13.80;;;;;;;;;;5113153;28;20093;-67
2022/03/30 00:39:06;;;;;;;21.65;13.80;;;;;;;;;;5112520;28;20047;-68
2022/03/30 00:41:35;;;;;;;22.52;14.50;;;;;;;;;;5113516;28;20083;-67
2022/03/30 00:44:10;;;;;;;24.08;14.30;;;;;;;;;;5112170;28;20036;-67
2022/03/30 00:46:46;;;;;;;24.58;14.68;;;;;;;;;;5113005;28;20035;-66
2022/03/30 00:49:18;;;;;;;24.50;14.65;;;;;;;;;;5113018;28;20097;-66
2022/03/30 00:51:46;;;;;;;24.63;14.75;;;;;;;;;;5114564;28;20400;-66
2022/03/30 00:54:17;;;;;;;25.13;14.57;;;;;;;;;;5116962;28;20400;-66
2022/03/30 00:56:50;;;;;;;23.33;14.48;;;;;;;;;;5116624;28;20040;-66
2022/03/30 00:59:18;;;;;;;24.58;14.77;;;;;;;;;;5116384;28;20505;-66
2022/03/30 01:01:50;;;;;;;25.73;15.07;;;;;;;;;;5098677;28;20096;-66
2022/03/30 01:04:22;;;;;;;24.25;14.35;;;;;;;;;;5116823;28;20044;-67
2022/03/30 01:06:51;;;;;;;22.40;14.45;;;;;;;;;;5116708;28;20438;-67
2022/03/30 01:09:21;;;;;;;24.48;14.77;;;;;;;;;;5116818;28;20032;-67
2022/03/30 01:11:51;;;;;;;26.17;15.18;;;;;;;;;;5116297;28;20548;-66
2022/03/30 01:14:27;;;;;;;21.08;13.45;;;;;;;;;;5116749;28;20404;-66
2022/03/30 01:16:56;;;;;;;19.00;13.95;;;;;;;;;;5116175;28;20101;-66
2022/03/30 01:19:30;;;;;;;28.00;14.57;;;;;;;;;;5116475;28;20047;-66
2022/03/30 01:21:59;;;;;;;24.17;14.53;;;;;;;;;;5116104;28;20051;-66
2022/03/30 01:24:29;;;;;;;23.08;13.88;;;;;;;;;;5116352;28;20271;-66
2022/03/30 01:26:57;;;;;;;24.17;14.02;;;;;;;;;;5116032;28;20035;-66
2022/03/30 01:32:25;;;;;;;20.42;14.43;;;;;;;;;;5115979;28;20050;-66
2022/03/30 01:35:00;;;;;;;21.98;13.82;;;;;;;;;;5115977;28;20047;-66
2022/03/30 01:37:30;;;;;;;24.73;14.32;;;;;;;;;;5119593;28;20059;-66
2022/03/30 01:40:04;;;;;;;21.42;14.90;;;;;;;;;;5118277;28;20040;-66
2022/03/30 01:42:34;;;;;;;24.70;14.68;;;;;;;;;;5115936;28;20032;-66
2022/03/30 01:45:04;;;;;;;27.02;17.27;;;;;;;;;;5116159;28;20472;-66
2022/03/30 01:47:32;;;;;;;30.52;15.57;;;;;;;;;;5116146;28;20043;-66
2022/03/30 01:50:06;;;;;;;26.10;15.32;;;;;;;;;;5115831;28;20119;-66
2022/03/30 01:52:39;;;;;;;23.08;14.65;;;;;;;;;;5116039;28;20044;-66
2022/03/30 01:55:08;;;;;;;22.50;14.32;;;;;;;;;;5115753;28;20047;-66
2022/03/30 01:57:35;;;;;;;23.45;14.55;;;;;;;;;;5115137;28;20451;-66
2022/03/30 02:00:28;;;;;;;21.02;14.35;;;;;;;;;;5115869;28;20561;-66
2022/03/30 02:03:01;;;;;;;26.35;15.02;;;;;;;;;;5115471;28;20512;-66
2022/03/30 02:05:31;;;;;;;27.55;14.43;;;;;;;;;;5115438;28;20047;-66
2022/03/30 02:08:03;;;;;;;22.85;14.05;;;;;;;;;;5097063;28;20134;-66
2022/03/30 02:10:38;;;;;;;21.88;14.55;;;;;;;;;;5115342;28;20110;-66
2022/03/30 02:13:06;;;;;;;25.40;15.35;;;;;;;;;;5115355;28;20064;-66
2022/03/30 02:15:40;;;;;;;25.98;15.52;;;;;;;;;;5115223;28;20047;-66
2022/03/30 02:18:09;;;;;;;25.20;17.05;;;;;;;;;;5114920;28;20040;-65
2022/03/30 02:20:37;;;;;;;31.77;17.48;;;;;;;;;;5115334;28;20381;-65
2022/03/30 02:23:16;;;;;;;28.55;17.17;;;;;;;;;;5115263;28;20436;-65
2022/03/30 02:25:45;;;;;;;27.73;17.10;;;;;;;;;;5115016;28;20051;-65
2022/03/30 02:28:13;;;;;;;24.85;16.48;;;;;;;;;;5114613;28;20035;-65
2022/03/30 02:31:02;;;;;;;29.50;18.17;;;;;;;;;;5114940;28;20126;-65
2022/03/30 02:33:30;;;;;;;29.52;17.60;;;;;;;;;;5114673;28;20488;-66
2022/03/30 02:36:05;;;;;;;30.23;18.80;;;;;;;;;;5114510;28;20048;-65
2022/03/30 02:38:57;;;;;;;35.08;18.70;;;;;;;;;;5115174;28;20052;-65
2022/03/30 02:41:50;;;;;;;28.77;18.45;;;;;;;;;;5114517;28;20110;-66
2022/03/30 02:44:18;;;;;;;28.13;18.13;;;;;;;;;;5114820;28;20040;-66
2022/03/30 02:46:46;;;;;;;31.05;18.23;;;;;;;;;;5114252;28;20044;-66
2022/03/30 02:49:17;;;;;;;25.65;16.38;;;;;;;;;;5115001;28;20050;-65
2022/03/30 02:51:46;;;;;;;27.85;17.33;;;;;;;;;;5114560;28;20505;-65
2022/03/30 02:54:16;;;;;;;31.88;16.92;;;;;;;;;;5114541;28;20043;-65
2022/03/30 02:56:56;;;;;;;22.25;14.73;;;;;;;;;;5114669;28;20046;-65
2022/03/30 02:59:24;;;;;;;21.58;15.18;;;;;;;;;;5113953;28;20051;-66
2022/03/30 03:02:16;;;;;;;28.42;15.63;;;;;;;;;;5114415;28;20044;-65
2022/03/30 03:04:47;;;;;;;24.42;14.68;;;;;;;;;;5114439;28;20035;-66
2022/03/30 03:07:16;;;;;;;29.80;15.10;;;;;;;;;;5114036;28;20059;-66
2022/03/30 03:09:48;;;;;;;27.63;15.27;;;;;;;;;;5114737;28;20042;-66
2022/03/30 03:12:23;;;;;;;27.25;15.25;;;;;;;;;;5114362;28;20046;-65
2022/03/30 03:14:51;;;;;;;25.00;16.30;;;;;;;;;;5113436;28;20122;-65
2022/03/30 03:17:21;;;;;;;30.52;17.65;;;;;;;;;;5095881;28;20044;-65
2022/03/30 03:19:52;;;;;;;29.52;18.25;;;;;;;;;;5114296;28;20466;-65
2022/03/30 03:22:25;;;;;;;27.90;17.13;;;;;;;;;;5114329;28;20043;-66
2022/03/30 03:24:53;;;;;;;28.10;17.15;;;;;;;;;;5114077;28;20039;-66
2022/03/30 03:27:28;;;;;;;29.60;18.85;;;;;;;;;;5113694;28;20039;-66
2022/03/30 03:29:56;;;;;;;31.08;18.55;;;;;;;;;;5113722;28;20374;-66
2022/03/30 03:32:28;;;;;;;26.30;18.00;;;;;;;;;;5113933;28;20040;-66
2022/03/30 03:35:03;;;;;;;31.85;19.42;;;;;;;;;;5113930;28;20051;-67
2022/03/30 03:37:33;;;;;;;32.22;20.00;;;;;;;;;;5113643;28;20040;-66
2022/03/30 03:40:01;;;;;;;28.17;18.50;;;;;;;;;;5113877;28;20138;-66
2022/03/30 03:42:34;;;;;;;33.72;18.95;;;;;;;;;;5113874;28;20097;-66
2022/03/30 03:45:07;;;;;;;29.40;18.10;;;;;;;;;;5113586;28;20092;-65
2022/03/30 03:47:37;;;;;;;32.50;19.33;;;;;;;;;;5113692;28;20054;-65
2022/03/30 03:50:07;;;;;;;32.13;18.38;;;;;;;;;;5113494;28;20043;-67
2022/03/30 03:52:38;;;;;;;31.42;19.02;;;;;;;;;;5113861;28;20039;-65
2022/03/30 03:55:07;;;;;;;35.63;19.55;;;;;;;;;;5113998;28;20385;-65
2022/03/30 03:57:37;;;;;;;41.10;22.38;;;;;;;;;;5112597;28;20048;-65
2022/03/30 04:00:07;;;;;;;39.05;22.80;;;;;;;;;;5113487;28;20119;-65
2022/03/30 04:02:41;;;;;;;40.03;22.77;;;;;;;;;;5113595;28;20097;-65
2022/03/30 04:05:09;;;;;;;39.42;21.92;;;;;;;;;;5113223;28;20040;-65
2022/03/30 04:07:38;;;;;;;38.55;21.17;;;;;;;;;;5113321;28;20485;-64
2022/03/30 04:10:07;;;;;;;42.67;21.50;;;;;;;;;;5113303;28;20040;-65
2022/03/30 04:12:40;;;;;;;37.45;20.67;;;;;;;;;;5113435;28;20508;-65
2022/03/30 04:15:15;;;;;;;37.58;19.70;;;;;;;;;;5113415;28;20040;-66
2022/03/30 04:17:45;;;;;;;40.15;20.50;;;;;;;;;;5113113;28;20110;-66
2022/03/30 04:20:15;;;;;;;36.25;19.50;;;;;;;;;;5113686;28;20039;-66
2022/03/30 04:23:10;;;;;;;37.65;19.30;;;;;;;;;;5113345;28;20086;-66
2022/03/30 04:25:38;;;;;;;32.78;20.75;;;;;;;;;;5113693;28;20032;-66
2022/03/30 04:28:06;;;;;;;42.92;22.65;;;;;;;;;;5115797;28;20035;-66
2022/03/30 04:30:34;;;;;;;42.78;22.60;;;;;;;;;;5115551;28;20089;-65
2022/03/30 04:33:03;;;;;;;45.20;22.08;;;;;;;;;;5116665;28;20040;-66
2022/03/30 04:35:33;;;;;;;39.20;21.63;;;;;;;;;;5117818;28;20047;-68
2022/03/30 04:38:08;;;;;;;39.25;21.75;;;;;;;;;;5117169;28;20059;-66
2022/03/30 04:40:41;;;;;;;;;;;;;;;;;;5117865;28;20043;-66
2022/03/30 04:43:09;;;;;;;38.88;21.67;;;;;;;;;;5116825;28;19998;-66
2022/03/30 04:45:40;;;;;;;42.50;24.13;;;;;;;;;;5116900;28;20075;-65
2022/03/30 04:48:13;;;;;;;50.53;25.92;;;;;;;;;;5117377;28;20048;-65
2022/03/30 04:50:46;;;;;;;44.08;26.75;;;;;;;;;;5117241;28;20040;-66
2022/03/30 04:53:16;;;;;;;44.80;25.65;;;;;;;;;;5116933;28;20517;-66
2022/03/30 04:55:48;;;;;;;44.00;25.20;;;;;;;;;;5117084;28;20036;-65
2022/03/30 04:58:16;;;;;;;39.38;23.83;;;;;;;;;;5116778;28;20469;-65
2022/03/30 05:00:43;;;;;;;38.13;21.35;;;;;;;;;;5116285;28;20039;-66
2022/03/30 05:03:12;;;;;;;33.88;20.77;;;;;;;;;;5109946;28;20055;-66
2022/03/30 05:05:40;;;;;;;41.58;21.20;;;;;;;;;;5116447;28;20047;-67
2022/03/30 05:08:08;;;;;;;39.67;21.70;;;;;;;;;;5116557;28;20043;-68
2022/03/30 05:10:36;;;;;;;41.28;21.70;;;;;;;;;;5111785;28;20135;-68
2022/03/30 05:13:04;;;;;;;38.45;21.42;;;;;;;;;;5096010;28;20101;-68
2022/03/30 05:15:34;;;;;;;37.95;21.27;;;;;;;;;;5096198;28;20036;-68
2022/03/30 05:18:03;;;;;;;34.90;19.92;;;;;;;;;;5096015;28;20040;-67
2022/03/30 05:20:33;;;;;;;38.53;19.45;;;;;;;;;;5096189;28;20040;-67
2022/03/30 05:23:00;;;;;;;31.25;19.63;;;;;;;;;;5095753;28;20046;-68
2022/03/30 05:25:29;;;;;;;39.30;21.88;;;;;;;;;;5096157;28;20046;-67
2022/03/30 05:28:00;;;;;;;31.88;19.13;;;;;;;;;;5095913;28;20036;-67
2022/03/30 05:30:28;;;;;;;31.10;20.20;;;;;;;;;;5096755;28;20111;-67
2022/03/30 05:32:57;;;;;;;36.90;20.35;;;;;;;;;;5078629;28;20071;-67
2022/03/30 05:35:25;;;;;;;37.17;22.05;;;;;;;;;;5095664;28;20052;-67
2022/03/30 05:37:53;;;;;;;33.30;22.38;;;;;;;;;;5095025;28;20044;-67
2022/03/30 05:40:21;;;;;;;30.73;20.70;;;;;;;;;;5095291;28;20048;-67
2022/03/30 05:42:49;;;;;;;68.97;22.88;;;;;;;;;;5095585;28;20036;-69
2022/03/30 05:45:17;;;;;;;51.33;22.42;;;;;;;;;;5093893;28;20394;-67
2022/03/30 05:47:46;;;;;;;28.65;20.85;;;;;;;;;;5101793;28;20048;-67
2022/03/30 05:50:13;;;;;;;33.42;19.00;;;;;;;;;;5115116;28;20036;-68
2022/03/30 05:52:41;;;;;;;31.65;18.55;;;;;;;;;;5115688;28;20040;-65
2022/03/30 05:55:09;;;;;;;27.58;18.10;;;;;;;;;;5115201;28;20050;-66
2022/03/30 05:57:37;;;;;;;26.10;18.27;;;;;;;;;;5114829;28;20480;-66
2022/03/30 06:00:07;;;;;;;27.33;17.75;;;;;;;;;;5115927;28;20047;-66
2022/03/30 06:02:40;;;;;;;29.08;18.05;;;;;;;;;;5114888;28;20100;-67
2022/03/30 06:05:09;;;;;;;29.20;18.60;;;;;;;;;;5115352;28;20126;-66
2022/03/30 06:07:38;;;;;;;27.38;18.67;;;;;;;;;;5115470;28;20070;-68
2022/03/30 06:10:05;;;;;;;25.83;17.92;;;;;;;;;;5115576;28;20067;-68
2022/03/30 06:12:33;;;;;;;29.38;18.27;;;;;;;;;;5115838;28;20044;-69
2022/03/30 06:15:23;;;;;;;27.15;19.98;;;;;;;;;;5115783;28;20035;-70
2022/03/30 06:17:55;;;;;;;28.70;19.42;;;;;;;;;;5114645;28;20040;-68
2022/03/30 06:20:24;;;;;;;29.20;20.42;;;;;;;;;;5114345;28;20449;-67
2022/03/30 06:22:53;;;;;;;30.60;19.10;;;;;;;;;;5115065;28;20050;-67
2022/03/30 06:25:25;;;;;;;29.10;19.55;;;;;;;;;;5115076;28;20043;-66
2022/03/30 06:27:53;;;;;;;29.15;20.20;;;;;;;;;;5114762;28;20105;-70
2022/03/30 06:30:21;;;;;;;27.90;19.50;;;;;;;;;;5098089;28;20048;-70
2022/03/30 06:32:51;;;;;;;30.83;20.73;;;;;;;;;;5094535;28;20482;-68
2022/03/30 06:35:19;;;;;;;28.05;19.58;;;;;;;;;;5094326;28;20044;-68
2022/03/30 06:37:48;;;;;;;28.30;19.05;;;;;;;;;;5094501;28;20040;-68
2022/03/30 06:40:19;;;;;;;25.73;17.95;;;;;;;;;;5095207;28;20047;-68
2022/03/30 06:42:48;;;;;;;25.27;18.50;;;;;;;;;;5111432;28;20576;-69
2022/03/30 06:45:17;;;;;;;29.65;18.13;;;;;;;;;;5114639;28;20460;-68
2022/03/30 06:47:46;;;;;;;32.20;18.75;;;;;;;;;;5113744;28;20040;-68
2022/03/30 06:50:17;;;;;;;24.65;17.35;;;;;;;;;;5113128;28;20035;-67
2022/03/30 06:52:45;;;;;;;26.55;17.35;;;;;;;;;;5113766;28;20059;-68
2022/03/30 06:55:14;;;;;;;25.00;17.65;;;;;;;;;;5114827;28;20043;-68
2022/03/30 06:57:42;;;;;;;24.83;18.02;;;;;;;;;;5113394;28;20046;-68
2022/03/30 07:00:12;;;;;;;28.45;20.58;;;;;;;;;;5114050;28;20048;-68
2022/03/30 07:02:40;;;;;;;30.25;18.45;;;;;;;;;;5114630;28;20044;-69
2022/03/30 07:05:07;;;;;;;31.10;17.95;;;;;;;;;;5113942;28;20093;-68
2022/03/30 07:10:23;;;;;;;21.48;13.07;;;;;;;;;;5093195;28;20050;-69
2022/03/30 07:12:55;;;;;;;16.73;13.43;;;;;;;;;;5094124;28;20043;-69
2022/03/30 07:15:27;;;;;;;17.90;12.57;;;;;;;;;;5094087;28;20098;-68
2022/03/30 07:18:01;;;;;;;18.90;12.93;;;;;;;;;;5093888;28;20040;-68
2022/03/30 07:20:31;;;;;;;20.13;12.85;;;;;;;;;;5093713;28;20079;-67
2022/03/30 07:23:01;;;;;;;16.83;12.70;;;;;;;;;;5094094;28;20048;-67
2022/03/30 07:25:31;;;;;;;22.00;13.77;;;;;;;;;;5093687;28;20040;-73
2022/03/30 07:28:06;;;;;;;20.15;11.95;;;;;;;;;;5093565;28;20171;-73
2022/03/30 07:30:40;;;;;;;16.63;11.95;;;;;;;;;;5093331;28;20039;-75
2022/03/30 07:33:13;;;;;;;24.38;12.45;;;;;;;;;;5093503;28;20478;-74
2022/03/30 07:35:46;;;;;;;19.38;11.90;;;;;;;;;;5094073;28;20050;-74
2022/03/30 07:38:20;;;;;;;19.05;11.32;;;;;;;;;;5093658;28;20036;-72
2022/03/30 07:41:00;;;;;;;18.00;11.75;;;;;;;;;;5093488;28;20070;-74
2022/03/30 07:43:28;;;;;;;18.17;11.55;;;;;;;;;;5093518;28;20032;-73
2022/03/30 07:46:13;;;;;;;16.88;11.00;;;;;;;;;;5093641;28;20067;-73
2022/03/30 07:48:41;;;;;;;20.45;13.75;;;;;;;;;;5093531;28;20123;-72
2022/03/30 07:51:10;;;;;;;20.25;13.02;;;;;;;;;;5092314;28;20043;-72
2022/03/30 07:53:40;;;;;;;24.42;13.20;;;;;;;;;;5093262;28;20490;-72
2022/03/30 07:56:14;;;;;;;20.55;12.25;;;;;;;;;;5092834;28;20036;-72
2022/03/30 07:58:42;;;;;;;20.92;11.65;;;;;;;;;;5092040;28;20506;-72
2022/03/30 08:01:35;;;;;;;18.20;11.15;;;;;;;;;;5095333;28;20494;-72
2022/03/30 08:04:04;;;;;;;18.20;10.90;;;;;;;;;;5097530;28;20479;-71
2022/03/30 08:06:35;;;;;;;36.47;11.48;;;;;;;;;;5097201;28;20036;-72
2022/03/30 08:09:28;;;;;;;21.08;10.27;;;;;;;;;;5097436;28;20389;-72
2022/03/30 08:12:21;;;;;;;27.30;11.02;;;;;;;;;;5097367;28;20481;-75
2022/03/30 08:14:54;;;;;;;23.30;11.50;;;;;;;;;;5097300;28;20043;-73
2022/03/30 08:17:22;;;;;;;44.42;12.55;;;;;;;;;;5097556;28;20067;-74
2022/03/30 08:22:25;;;;;;;153.93;19.85;;;;;;;;;;5097107;28;20040;-72
2022/03/30 08:23:02;;;;;;;18.63;11.35;;;;;;;;;;5097020;28;20044;-73
2022/03/30 08:36:29;;;;;;;24.20;11.55;;;;;;;;;;5096798;28;20389;-73
2022/03/30 08:38:57;;;;;;;19.60;10.80;;;;;;;;;;5096608;28;20504;-73
2022/03/30 08:41:25;;;;;;;38.63;12.38;;;;;;;;;;5096107;28;20051;-72
2022/03/30 08:46:50;;;;;;;17.70;10.57;;;;;;;;;;5097010;28;20032;-74
2022/03/30 08:49:21;;;;;;;20.50;11.07;;;;;;;;;;5096277;28;20100;-75
2022/03/30 08:51:54;;;;;;;18.73;11.25;;;;;;;;;;5096540;28;20059;-73
2022/03/30 08:58:05;;;;;;;20.17;10.82;;;;;;;;;;5095524;28;20119;-72
2022/03/30 09:00:39;;;;;;;23.80;11.98;;;;;;;;;;5076285;28;20067;-73
2022/03/30 09:03:32;;;;;;;19.60;11.65;;;;;;;;;;5076041;28;20119;-72
2022/03/30 09:06:25;;;;;;;24.00;11.63;;;;;;;;;;5075910;28;20051;-72
2022/03/30 09:08:57;;;;;;;21.33;11.50;;;;;;;;;;5082285;28;20115;-72
2022/03/30 09:11:45;;;;;;;20.73;11.13;;;;;;;;;;5096425;28;20417;-73
2022/03/30 09:14:39;;;;;;;19.23;11.65;;;;;;;;;;5096289;28;20032;-72
2022/03/30 09:17:11;;;;;;;23.65;11.60;;;;;;;;;;5095952;28;20044;-72
2022/03/30 09:19:40;;;;;;;23.48;11.45;;;;;;;;;;5075421;28;20064;-71
2022/03/30 09:22:10;;;;;;;24.15;10.88;;;;;;;;;;5075472;28;20087;-73
2022/03/30 09:24:41;;;;;;;18.50;10.82;;;;;;;;;;5075614;28;20122;-72
2022/03/30 09:27:14;;;;;;;27.90;12.52;;;;;;;;;;5075742;28;20037;-72
2022/03/30 09:29:42;;;;;;;19.08;11.50;;;;;;;;;;5075539;28;20040;-73
2022/03/30 09:32:23;;;;;;;19.95;11.80;;;;;;;;;;5075468;28;20041;-73
2022/03/30 09:34:52;;;;;;;20.25;11.38;;;;;;;;;;5075277;28;20048;-75
2022/03/30 09:37:21;;;;;;;19.42;11.30;;;;;;;;;;5093932;28;20476;-73
2022/03/30 09:39:53;;;;;;;24.08;11.98;;;;;;;;;;5091467;28;20040;-73
2022/03/30 09:42:22;;;;;;;20.10;11.43;;;;;;;;;;5094480;28;20040;-76
2022/03/30 09:44:52;;;;;;;23.75;12.27;;;;;;;;;;5091399;28;20037;-76
2022/03/30 09:47:22;;;;;;;26.30;13.77;;;;;;;;;;5094080;28;20553;-73
2022/03/30 09:50:16;;;;;;;28.67;14.05;;;;;;;;;;5094278;28;20032;-73
2022/03/30 09:52:44;;;;;;;29.33;13.48;;;;;;;;;;5094802;28;20038;-75
2022/03/30 09:55:26;;;;;;;26.75;13.07;;;;;;;;;;5096237;28;20032;-75
2022/03/30 09:58:18;;;;;;;19.38;12.60;;;;;;;;;;5095100;28;20460;-75
2022/03/30 10:00:52;;;;;;;24.15;13.25;;;;;;;;;;5094358;28;20076;-75
2022/03/30 10:03:21;;;;;;;22.75;13.10;;;;;;;;;;5093592;28;20072;-75
2022/03/30 10:05:51;;;;;;;25.77;14.77;;;;;;;;;;5094770;28;20036;-78
2022/03/30 10:08:19;;;;;;;25.83;14.38;;;;;;;;;;5094534;28;20044;-76
2022/03/30 10:10:46;;;;;;;36.20;15.05;;;;;;;;;;5094817;28;20039;-79
2022/03/30 10:13:16;;;;;;;22.10;14.60;;;;;;;;;;5094649;28;20119;-79
2022/03/30 10:15:47;;;;;;;23.52;15.27;;;;;;;;;;5095569;28;20036;-76
2022/03/30 10:18:20;;;;;;;32.30;15.15;;;;;;;;;;5093739;28;20054;-75
2022/03/30 10:21:13;;;;;;;23.45;15.07;;;;;;;;;;5094942;28;20044;-77
2022/03/30 10:23:56;;;;;;;23.23;15.05;;;;;;;;;;5094163;28;20115;-76
2022/03/30 10:26:45;;;;;;;25.92;16.38;;;;;;;;;;5094804;28;20036;-77
2022/03/30 10:29:16;;;;;;;27.77;16.23;;;;;;;;;;5094611;28;20524;-76
2022/03/30 10:32:05;;;;;;;29.83;16.55;;;;;;;;;;5094552;28;20048;-76
2022/03/30 10:34:39;;;;;;;21.00;14.45;;;;;;;;;;5094939;28;20074;-75
2022/03/30 10:37:15;;;;;;;23.02;15.27;;;;;;;;;;5094487;28;20032;-76
2022/03/30 10:40:03;;;;;;;20.73;14.07;;;;;;;;;;5093280;28;20055;-75
2022/03/30 10:43:03;;;;;;;19.58;14.20;;;;;;;;;;5094299;28;20065;-75
2022/03/30 10:45:33;;;;;;;23.30;13.85;;;;;;;;;;5050674;28;20078;-76
2022/03/30 10:48:26;;;;;;;22.73;14.13;;;;;;;;;;5093993;28;20040;-75
2022/03/30 10:51:14;;;;;;;33.83;24.38;;;;;;;;;;5094457;28;20046;-75
2022/03/30 10:53:47;;;;;;;20.77;13.73;;;;;;;;;;5094285;28;20036;-75
2022/03/30 10:56:19;;;;;;;24.67;13.90;;;;;;;;;;5094291;28;20032;-75
2022/03/30 10:58:52;;;;;;;24.45;13.95;;;;;;;;;;5100907;28;20063;-75
2022/03/30 11:01:22;;;;;;;23.40;13.50;;;;;;;;;;5096166;28;20134;-78
2022/03/30 11:03:57;;;;;;;21.38;13.75;;;;;;;;;;5114253;28;20052;-78
2022/03/30 11:06:25;;;;;;;24.77;14.00;;;;;;;;;;5114542;28;20063;-76
2022/03/30 11:09:17;;;;;;;25.35;13.98;;;;;;;;;;5114151;28;20027;-76
2022/03/30 11:12:12;;;;;;;26.63;14.32;;;;;;;;;;5114502;28;20130;-75
2022/03/30 11:14:46;;;;;;;21.05;13.75;;;;;;;;;;5114650;28;20035;-75
2022/03/30 11:17:32;;;;;;;22.40;13.53;;;;;;;;;;5114404;28;20040;-75
2022/03/30 11:20:06;;;;;;;20.48;13.63;;;;;;;;;;5114140;28;20069;-75
2022/03/30 11:22:34;;;;;;;;;;;;;;;;;;5114405;28;20067;-75
2022/03/30 11:25:19;;;;;;;18.60;12.43;;;;;;;;;;5114285;28;19924;-77
2022/03/30 11:28:01;;;;;;;19.02;12.27;;;;;;;;;;5113997;28;20039;-76
2022/03/30 11:30:32;;;;;;;19.17;12.75;;;;;;;;;;5113480;28;20507;-76
2022/03/30 11:33:04;;;;;;;19.08;12.57;;;;;;;;;;5113665;28;20055;-77
2022/03/30 11:35:42;;;;;;;22.98;12.63;;;;;;;;;;5113965;28;20044;-77
2022/03/30 11:38:11;;;;;;;23.23;13.50;;;;;;;;;;5114246;28;20043;-76
2022/03/30 11:40:42;;;;;;;23.67;13.80;;;;;;;;;;5113538;28;20043;-76
2022/03/30 11:43:19;;;;;;;22.80;13.38;;;;;;;;;;5113795;28;20146;-75
2022/03/30 11:46:29;;;;;;;23.70;13.97;;;;;;;;;;5113977;28;20066;-75
2022/03/30 11:49:02;;;;;;;22.42;14.13;;;;;;;;;;5113734;28;20040;-76
2022/03/30 11:51:32;;;;;;;23.80;14.88;;;;;;;;;;5095367;28;20408;-74
2022/03/30 11:54:17;;;;;;;21.10;14.77;;;;;;;;;;5113816;28;20154;-76
2022/03/30 11:56:47;;;;;;;22.17;14.60;;;;;;;;;;5113361;28;20062;-76
2022/03/30 11:59:18;;;;;;;22.83;14.82;;;;;;;;;;5113415;28;20078;-76
2022/03/30 12:01:46;;;;;;;22.02;14.15;;;;;;;;;;5113381;28;20036;-76
2022/03/30 12:04:22;;;;;;;21.48;13.98;;;;;;;;;;5113866;28;20435;-77
2022/03/30 12:06:52;;;;;;;23.05;13.50;;;;;;;;;;5113869;28;20094;-75
2022/03/30 12:09:29;;;;;;;19.77;12.73;;;;;;;;;;5113187;28;20400;-75
2022/03/30 12:12:01;;;;;;;19.80;13.18;;;;;;;;;;5113131;28;20051;-76
2022/03/30 12:14:35;;;;;;;21.08;12.30;;;;;;;;;;5113195;28;20396;-76
2022/03/30 12:17:04;;;;;;;;;;;;;;;;;;5095418;28;20062;-76
2022/03/30 12:19:34;;;;;;;23.73;12.68;;;;;;;;;;5113389;28;19926;-77
2022/03/30 12:22:09;;;;;;;21.35;12.38;;;;;;;;;;5095805;28;20075;-78
2022/03/30 12:25:03;;;;;;;19.45;12.10;;;;;;;;;;5113361;28;20052;-76
2022/03/30 12:27:40;;;;;;;21.98;13.18;;;;;;;;;;5113212;28;20059;-76
2022/03/30 12:33:44;;;;;;;21.65;12.27;;;;;;;;;;5112418;28;20024;-75
2022/03/30 12:36:37;;;;;;;20.95;11.70;;;;;;;;;;5112508;28;20047;-76
2022/03/30 12:39:25;;;;;;;20.10;12.00;;;;;;;;;;5111649;28;20118;-75
2022/03/30 12:42:05;;;;;;;18.80;12.13;;;;;;;;;;5113104;28;20031;-75
2022/03/30 12:44:39;;;;;;;19.75;12.30;;;;;;;;;;5113290;28;20116;-76
2022/03/30 12:47:31;;;;;;;18.67;12.02;;;;;;;;;;5110719;28;20058;-76
2022/03/30 12:50:11;;;;;;;19.05;13.15;;;;;;;;;;5095611;28;20070;-77
2022/03/30 12:52:43;;;;;;;30.75;12.45;;;;;;;;;;5097632;28;20039;-76
2022/03/30 12:55:14;;;;;;;19.77;11.80;;;;;;;;;;5100813;28;20133;-77
2022/03/30 12:58:11;;;;;;;17.90;12.23;;;;;;;;;;5096661;28;20036;-79
2022/03/30 13:00:40;;;;;;;23.52;11.63;;;;;;;;;;5101612;28;20040;-77
2022/03/30 13:03:15;;;;;;;15.32;11.20;;;;;;;;;;5077930;28;20046;-79
2022/03/30 13:05:46;;;;;;;22.15;12.65;;;;;;;;;;5104259;28;20042;-79
2022/03/30 13:08:15;;;;;;;23.65;11.88;;;;;;;;;;5110936;28;20040;-71
2022/03/30 13:11:01;;;;;;;19.10;11.40;;;;;;;;;;5096108;28;20482;-70
2022/03/30 13:13:31;;;;;;;21.45;11.55;;;;;;;;;;5106831;28;20035;-72
2022/03/30 13:16:06;;;;;;;18.33;12.20;;;;;;;;;;5105419;28;20027;-71
2022/03/30 13:18:34;;;;;;;20.52;12.10;;;;;;;;;;5116288;28;20050;-71
2022/03/30 13:21:09;;;;;;;19.63;13.02;;;;;;;;;;5116497;28;20050;-70
2022/03/30 13:23:43;;;;;;;22.23;12.00;;;;;;;;;;5116780;28;20044;-70
2022/03/30 13:26:26;;;;;;;17.40;11.70;;;;;;;;;;5116224;28;20102;-70
2022/03/30 13:28:55;;;;;;;18.83;11.45;;;;;;;;;;5116412;28;20074;-69
2022/03/30 13:31:25;;;;;;;21.60;11.63;;;;;;;;;;5097815;28;20043;-69
2022/03/30 13:33:54;;;;;;;22.75;11.63;;;;;;;;;;5116296;28;20075;-70
2022/03/30 13:36:22;;;;;;;21.08;11.93;;;;;;;;;;5115883;28;20035;-69
2022/03/30 13:38:54;;;;;;;21.25;12.50;;;;;;;;;;5115964;28;20051;-70
2022/03/30 13:41:36;;;;;;;21.92;11.30;;;;;;;;;;5116027;28;20059;-69
2022/03/30 13:44:05;;;;;;;19.30;11.77;;;;;;;;;;5116288;28;20118;-69
2022/03/30 13:46:35;;;;;;;22.75;11.65;;;;;;;;;;5115612;28;20046;-69
2022/03/30 13:49:07;;;;;;;23.05;12.07;;;;;;;;;;5115841;28;20035;-69
2022/03/30 13:51:35;;;;;;;18.35;10.52;;;;;;;;;;5115920;28;20122;-71
2022/03/30 13:54:05;;;;;;;22.48;10.65;;;;;;;;;;5115494;28;20043;-69
2022/03/30 13:56:40;;;;;;;25.08;10.65;;;;;;;;;;5115630;28;20411;-69
2022/03/30 13:59:07;;;;;;;18.08;10.63;;;;;;;;;;5114843;28;20061;-69
2022/03/30 14:01:36;;;;;;;18.60;11.00;;;;;;;;;;5115507;28;20043;-70
2022/03/30 14:04:15;;;;;;;20.35;11.00;;;;;;;;;;5115670;28;20049;-71
2022/03/30 14:06:44;;;;;;;17.45;11.00;;;;;;;;;;5115807;28;20112;-71
2022/03/30 14:09:13;;;;;;;17.75;10.98;;;;;;;;;;5115288;28;20039;-70
2022/03/30 14:11:45;;;;;;;19.35;11.05;;;;;;;;;;5115571;28;20039;-70
2022/03/30 14:14:13;;;;;;;17.65;10.85;;;;;;;;;;5115506;28;20070;-70
2022/03/30 14:16:44;;;;;;;17.70;10.80;;;;;;;;;;5115373;28;20035;-70
2022/03/30 14:19:16;;;;;;;25.77;10.93;;;;;;;;;;5115016;28;20062;-70
2022/03/30 14:21:45;;;;;;;19.85;10.80;;;;;;;;;;5115650;28;20039;-70
2022/03/30 14:24:12;;;;;;;19.73;10.75;;;;;;;;;;5115037;28;20378;-70
2022/03/30 14:26:44;;;;;;;17.55;9.85;;;;;;;;;;5096475;28;20390;-70
2022/03/30 14:29:13;;;;;;;19.70;10.30;;;;;;;;;;5115004;28;20107;-70
2022/03/30 14:31:43;;;;;;;19.95;10.48;;;;;;;;;;5114285;28;20039;-70
2022/03/30 14:34:15;;;;;;;22.00;10.68;;;;;;;;;;5114947;28;20383;-70
2022/03/30 14:36:45;;;;;;;23.33;10.57;;;;;;;;;;5114745;28;20039;-70
2022/03/30 14:39:15;;;;;;;20.42;9.82;;;;;;;;;;5096806;28;20047;-70
2022/03/30 14:41:45;;;;;;;18.00;10.15;;;;;;;;;;5115007;28;20066;-70
2022/03/30 14:44:14;;;;;;;22.13;10.45;;;;;;;;;;5115193;28;20118;-70
2022/03/30 14:46:43;;;;;;;16.88;10.25;;;;;;;;;;5114522;28;20039;-70
2022/03/30 14:49:14;;;;;;;17.67;10.40;;;;;;;;;;5115111;28;20059;-71
2022/03/30 14:51:44;;;;;;;19.60;9.95;;;;;;;;;;5114777;28;20091;-70
2022/03/30 14:54:14;;;;;;;21.67;9.93;;;;;;;;;;5114390;28;20136;-70
2022/03/30 14:56:46;;;;;;;19.35;10.52;;;;;;;;;;5114379;28;20065;-70
2022/03/30 14:59:16;;;;;;;19.67;10.45;;;;;;;;;;5114216;28;20126;-70
2022/03/30 15:01:43;;;;;;;23.50;10.93;;;;;;;;;;5114124;28;20071;-70
2022/03/30 15:04:17;;;;;;;19.02;10.50;;;;;;;;;;5114049;28;20436;-70
2022/03/30 15:06:46;;;;;;;20.83;10.38;;;;;;;;;;5114364;28;20050;-70
2022/03/30 15:09:14;;;;;;;16.83;10.10;;;;;;;;;;5095627;28;20043;-71
2022/03/30 15:11:46;;;;;;;15.88;9.10;;;;;;;;;;5113300;28;20090;-72
2022/03/30 15:14:14;;;;;;;18.73;10.18;;;;;;;;;;5114222;28;20059;-73
2022/03/30 15:16:42;;;;;;;20.35;10.70;;;;;;;;;;5113779;28;20036;-71
2022/03/30 15:19:16;;;;;;;19.05;10.30;;;;;;;;;;5113876;28;20044;-72